Moores Creek, Kentucky
Current Conditions -  °F | °C
As of 8:53 PM on Tuesday 21 Oct 2014 (Local Time) from KLOZ Reporting Station
Overcast Overcast  
Wind Chill: 53°   Ceiling: 5500
Heat Index: 53°   Visibility: 10mi
Dew Point: 39°   Wind: 7mph
Humidity: 59%   Direction: 360°N
Pressure: 30.11"   Gusts: NA
Location:  37.2945°N, 83.9615°W
Report Text: KLOZ 220053Z AUTO 36006KT 10SM OVC055 12/04 A3011 RMK AO2 SLP195 T01170039
Loading
Personal Weather Stations






























Interactive Weather Map
Tropical Storm Tracking
New forecast layout! Learn more

10-Day Weather Forecast

Advertisements
Track Severe Weather on mobile